sensor_id;sensor_type;location;lat;lon;timestamp;temperature;humidity
2625;DHT22;1322;53.256;10.386;2022-10-16T00:02:00;15.70;99.90
2625;DHT22;1322;53.256;10.386;2022-10-16T00:04:26;15.70;99.90
2625;DHT22;1322;53.256;10.386;2022-10-16T00:06:51;15.70;99.90
2625;DHT22;1322;53.256;10.386;2022-10-16T00:09:17;15.70;99.90
2625;DHT22;1322;53.256;10.386;2022-10-16T00:11:42;15.60;99.90
2625;DHT22;1322;53.256;10.386;2022-10-16T00:14:12;15.60;99.90
2625;DHT22;1322;53.256;10.386;2022-10-16T00:16:38;15.60;99.90
2625;DHT22;1322;53.256;10.386;2022-10-16T00:19:04;15.60;99.90
2625;DHT22;1322;53.256;10.386;2022-10-16T00:21:30;15.60;99.90
2625;DHT22;1322;53.256;10.386;2022-10-16T00:24:02;15.60;99.90
2625;DHT22;1322;53.256;10.386;2022-10-16T00:26:29;15.50;99.90
2625;DHT22;1322;53.256;10.386;2022-10-16T00:28:55;15.50;99.90
2625;DHT22;1322;53.256;10.386;2022-10-16T00:31:23;15.50;99.90
2625;DHT22;1322;53.256;10.386;2022-10-16T00:33:49;15.50;99.90
2625;DHT22;1322;53.256;10.386;2022-10-16T00:36:17;15.40;99.90
2625;DHT22;1322;53.256;10.386;2022-10-16T00:38:43;15.40;99.90
2625;DHT22;1322;53.256;10.386;2022-10-16T00:41:19;15.30;99.90
2625;DHT22;1322;53.256;10.386;2022-10-16T00:43:45;15.30;99.90
2625;DHT22;1322;53.256;10.386;2022-10-16T00:46:25;15.30;99.90
2625;DHT22;1322;53.256;10.386;2022-10-16T00:49:13;15.30;99.90
2625;DHT22;1322;53.256;10.386;2022-10-16T00:51:50;15.30;99.90
2625;DHT22;1322;53.256;10.386;2022-10-16T00:54:28;15.30;99.90
2625;DHT22;1322;53.256;10.386;2022-10-16T00:56:56;15.20;99.90
2625;DHT22;1322;53.256;10.386;2022-10-16T00:59:37;15.10;99.90
2625;DHT22;1322;53.256;10.386;2022-10-16T01:02:05;15.10;99.90
2625;DHT22;1322;53.256;10.386;2022-10-16T01:04:38;15.10;99.90
2625;DHT22;1322;53.256;10.386;2022-10-16T01:07:12;15.00;99.90
2625;DHT22;1322;53.256;10.386;2022-10-16T01:12:26;14.80;99.90
2625;DHT22;1322;53.256;10.386;2022-10-16T01:17:47;14.90;99.90
2625;DHT22;1322;53.256;10.386;2022-10-16T01:20:26;14.90;99.90
2625;DHT22;1322;53.256;10.386;2022-10-16T01:29:12;14.80;99.90
2625;DHT22;1322;53.256;10.386;2022-10-16T01:31:44;14.90;99.90
2625;DHT22;1322;53.256;10.386;2022-10-16T01:34:19;14.80;99.90
2625;DHT22;1322;53.256;10.386;2022-10-16T01:36:56;14.80;99.90
2625;DHT22;1322;53.256;10.386;2022-10-16T01:39:27;14.80;99.90
2625;DHT22;1322;53.256;10.386;2022-10-16T01:42:06;14.90;99.90
2625;DHT22;1322;53.256;10.386;2022-10-16T01:44:34;14.80;99.90
2625;DHT22;1322;53.256;10.386;2022-10-16T01:47:02;14.80;99.90
2625;DHT22;1322;53.256;10.386;2022-10-16T01:49:32;14.80;99.90
2625;DHT22;1322;53.256;10.386;2022-10-16T01:52:00;14.80;99.90
2625;DHT22;1322;53.256;10.386;2022-10-16T01:54:29;14.70;99.90
2625;DHT22;1322;53.256;10.386;2022-10-16T01:56:56;14.70;99.90
2625;DHT22;1322;53.256;10.386;2022-10-16T01:59:25;14.70;99.90
2625;DHT22;1322;53.256;10.386;2022-10-16T02:02:00;14.60;99.90
2625;DHT22;1322;53.256;10.386;2022-10-16T02:04:57;14.60;99.90
2625;DHT22;1322;53.256;10.386;2022-10-16T02:07:23;14.70;99.90
2625;DHT22;1322;53.256;10.386;2022-10-16T02:09:49;14.70;99.90
2625;DHT22;1322;53.256;10.386;2022-10-16T02:12:22;14.60;99.90
2625;DHT22;1322;53.256;10.386;2022-10-16T02:14:49;14.60;99.90
2625;DHT22;1322;53.256;10.386;2022-10-16T02:17:17;14.70;99.90
2625;DHT22;1322;53.256;10.386;2022-10-16T02:19:45;14.60;99.90
2625;DHT22;1322;53.256;10.386;2022-10-16T02:22:26;14.60;99.90
2625;DHT22;1322;53.256;10.386;2022-10-16T02:24:59;14.60;99.90
2625;DHT22;1322;53.256;10.386;2022-10-16T02:30:19;14.40;99.90
2625;DHT22;1322;53.256;10.386;2022-10-16T02:32:47;14.40;99.90
2625;DHT22;1322;53.256;10.386;2022-10-16T02:35:16;14.50;99.90
2625;DHT22;1322;53.256;10.386;2022-10-16T02:37:42;14.50;99.90
2625;DHT22;1322;53.256;10.386;2022-10-16T02:40:08;14.40;99.90
2625;DHT22;1322;53.256;10.386;2022-10-16T02:42:37;14.40;99.90
2625;DHT22;1322;53.256;10.386;2022-10-16T02:45:04;14.40;99.90
2625;DHT22;1322;53.256;10.386;2022-10-16T02:47:30;14.40;99.90
2625;DHT22;1322;53.256;10.386;2022-10-16T02:49:56;14.40;99.90
2625;DHT22;1322;53.256;10.386;2022-10-16T02:52:21;14.40;99.90
2625;DHT22;1322;53.256;10.386;2022-10-16T02:54:47;14.40;99.90
2625;DHT22;1322;53.256;10.386;2022-10-16T02:57:13;14.40;99.90
2625;DHT22;1322;53.256;10.386;2022-10-16T02:59:38;14.30;99.90
2625;DHT22;1322;53.256;10.386;2022-10-16T03:02:04;14.30;99.90
2625;DHT22;1322;53.256;10.386;2022-10-16T03:04:30;14.30;99.90
2625;DHT22;1322;53.256;10.386;2022-10-16T03:06:55;14.30;99.90
2625;DHT22;1322;53.256;10.386;2022-10-16T03:09:21;14.20;99.90
2625;DHT22;1322;53.256;10.386;2022-10-16T03:11:46;14.20;99.90
2625;DHT22;1322;53.256;10.386;2022-10-16T03:14:13;14.20;99.90
2625;DHT22;1322;53.256;10.386;2022-10-16T03:16:38;14.20;99.90
2625;DHT22;1322;53.256;10.386;2022-10-16T03:19:04;14.20;99.90
2625;DHT22;1322;53.256;10.386;2022-10-16T03:21:29;14.20;99.90
2625;DHT22;1322;53.256;10.386;2022-10-16T03:23:55;14.20;99.90
2625;DHT22;1322;53.256;10.386;2022-10-16T03:26:21;14.20;99.90
2625;DHT22;1322;53.256;10.386;2022-10-16T03:28:46;14.20;99.90
2625;DHT22;1322;53.256;10.386;2022-10-16T03:31:12;14.20;99.90
2625;DHT22;1322;53.256;10.386;2022-10-16T03:33:37;14.20;99.90
2625;DHT22;1322;53.256;10.386;2022-10-16T03:36:03;14.20;99.90
2625;DHT22;1322;53.256;10.386;2022-10-16T03:38:29;14.20;99.90
2625;DHT22;1322;53.256;10.386;2022-10-16T03:40:55;14.20;99.90
2625;DHT22;1322;53.256;10.386;2022-10-16T03:43:20;14.20;99.90
2625;DHT22;1322;53.256;10.386;2022-10-16T03:45:46;14.10;99.90
2625;DHT22;1322;53.256;10.386;2022-10-16T03:48:11;14.10;99.90
2625;DHT22;1322;53.256;10.386;2022-10-16T03:50:37;14.10;99.90
2625;DHT22;1322;53.256;10.386;2022-10-16T03:53:03;14.10;99.90
2625;DHT22;1322;53.256;10.386;2022-10-16T03:55:29;14.10;99.90
2625;DHT22;1322;53.256;10.386;2022-10-16T03:57:54;14.10;99.90
2625;DHT22;1322;53.256;10.386;2022-10-16T04:00:20;14.10;99.90
2625;DHT22;1322;53.256;10.386;2022-10-16T04:02:45;14.10;99.90
2625;DHT22;1322;53.256;10.386;2022-10-16T04:05:11;14.10;99.90
2625;DHT22;1322;53.256;10.386;2022-10-16T04:07:37;14.10;99.90
2625;DHT22;1322;53.256;10.386;2022-10-16T04:10:03;14.00;99.90
2625;DHT22;1322;53.256;10.386;2022-10-16T04:12:29;14.00;99.90
2625;DHT22;1322;53.256;10.386;2022-10-16T04:14:55;14.00;99.90
2625;DHT22;1322;53.256;10.386;2022-10-16T04:17:20;14.00;99.90
2625;DHT22;1322;53.256;10.386;2022-10-16T04:19:46;13.90;99.90
2625;DHT22;1322;53.256;10.386;2022-10-16T04:22:11;13.90;99.90
2625;DHT22;1322;53.256;10.386;2022-10-16T04:24:37;13.90;99.90
2625;DHT22;1322;53.256;10.386;2022-10-16T04:27:03;13.90;99.90
2625;DHT22;1322;53.256;10.386;2022-10-16T04:29:29;13.90;99.90
2625;DHT22;1322;53.256;10.386;2022-10-16T04:31:54;13.90;99.90
2625;DHT22;1322;53.256;10.386;2022-10-16T04:34:20;13.80;99.90
2625;DHT22;1322;53.256;10.386;2022-10-16T04:36:49;13.80;99.90
2625;DHT22;1322;53.256;10.386;2022-10-16T04:39:15;13.80;99.90
2625;DHT22;1322;53.256;10.386;2022-10-16T04:41:41;13.90;99.90
2625;DHT22;1322;53.256;10.386;2022-10-16T04:44:06;13.90;99.90
2625;DHT22;1322;53.256;10.386;2022-10-16T04:46:32;13.90;99.90
2625;DHT22;1322;53.256;10.386;2022-10-16T04:48:58;13.90;99.90
2625;DHT22;1322;53.256;10.386;2022-10-16T04:51:23;13.90;99.90
2625;DHT22;1322;53.256;10.386;2022-10-16T04:53:49;14.00;99.90
2625;DHT22;1322;53.256;10.386;2022-10-16T04:56:15;14.00;99.90
2625;DHT22;1322;53.256;10.386;2022-10-16T04:58:40;14.00;99.90
2625;DHT22;1322;53.256;10.386;2022-10-16T05:01:06;14.00;99.90
2625;DHT22;1322;53.256;10.386;2022-10-16T05:03:32;14.00;99.90
2625;DHT22;1322;53.256;10.386;2022-10-16T05:05:57;14.00;99.90
2625;DHT22;1322;53.256;10.386;2022-10-16T05:08:23;14.10;99.90
2625;DHT22;1322;53.256;10.386;2022-10-16T05:10:49;14.00;99.90
2625;DHT22;1322;53.256;10.386;2022-10-16T05:13:14;14.10;99.90
2625;DHT22;1322;53.256;10.386;2022-10-16T05:15:40;14.10;99.90
2625;DHT22;1322;53.256;10.386;2022-10-16T05:18:06;14.10;99.90
2625;DHT22;1322;53.256;10.386;2022-10-16T05:20:31;14.10;99.90
2625;DHT22;1322;53.256;10.386;2022-10-16T05:22:57;14.00;99.90
2625;DHT22;1322;53.256;10.386;2022-10-16T05:25:22;14.10;99.90
2625;DHT22;1322;53.256;10.386;2022-10-16T05:27:49;14.00;99.90
2625;DHT22;1322;53.256;10.386;2022-10-16T05:30:15;14.00;99.90
2625;DHT22;1322;53.256;10.386;2022-10-16T05:32:41;14.00;99.90
2625;DHT22;1322;53.256;10.386;2022-10-16T05:35:07;14.00;99.90
2625;DHT22;1322;53.256;10.386;2022-10-16T05:37:32;14.00;99.90
2625;DHT22;1322;53.256;10.386;2022-10-16T05:39:58;14.00;99.90
2625;DHT22;1322;53.256;10.386;2022-10-16T05:42:23;13.90;99.90
2625;DHT22;1322;53.256;10.386;2022-10-16T05:44:49;13.90;99.90
2625;DHT22;1322;53.256;10.386;2022-10-16T05:47:14;13.90;99.90
2625;DHT22;1322;53.256;10.386;2022-10-16T05:49:40;13.90;99.90
2625;DHT22;1322;53.256;10.386;2022-10-16T05:52:06;13.80;99.90
2625;DHT22;1322;53.256;10.386;2022-10-16T05:54:32;13.80;99.90
2625;DHT22;1322;53.256;10.386;2022-10-16T05:56:57;13.80;99.90
2625;DHT22;1322;53.256;10.386;2022-10-16T05:59:23;13.80;99.90
2625;DHT22;1322;53.256;10.386;2022-10-16T06:01:48;13.80;99.90
2625;DHT22;1322;53.256;10.386;2022-10-16T06:04:14;13.90;99.90
2625;DHT22;1322;53.256;10.386;2022-10-16T06:06:40;13.80;99.90
2625;DHT22;1322;53.256;10.386;2022-10-16T06:09:05;13.80;99.90
2625;DHT22;1322;53.256;10.386;2022-10-16T06:11:32;13.90;99.90
2625;DHT22;1322;53.256;10.386;2022-10-16T06:13:59;13.90;99.90
2625;DHT22;1322;53.256;10.386;2022-10-16T06:16:27;13.90;99.90
2625;DHT22;1322;53.256;10.386;2022-10-16T06:18:54;13.90;99.90
2625;DHT22;1322;53.256;10.386;2022-10-16T06:21:23;13.90;99.90
2625;DHT22;1322;53.256;10.386;2022-10-16T06:23:50;13.90;99.90
2625;DHT22;1322;53.256;10.386;2022-10-16T06:26:19;13.90;99.90
2625;DHT22;1322;53.256;10.386;2022-10-16T06:28:45;13.80;99.90
2625;DHT22;1322;53.256;10.386;2022-10-16T06:31:12;13.90;99.90
2625;DHT22;1322;53.256;10.386;2022-10-16T06:33:38;13.80;99.90
2625;DHT22;1322;53.256;10.386;2022-10-16T06:36:15;13.80;99.90
2625;DHT22;1322;53.256;10.386;2022-10-16T06:38:41;13.90;99.90
2625;DHT22;1322;53.256;10.386;2022-10-16T06:41:09;13.90;99.90
2625;DHT22;1322;53.256;10.386;2022-10-16T06:43:36;13.90;99.90
2625;DHT22;1322;53.256;10.386;2022-10-16T06:46:03;13.90;99.90
2625;DHT22;1322;53.256;10.386;2022-10-16T06:48:29;13.90;99.90
2625;DHT22;1322;53.256;10.386;2022-10-16T06:51:08;13.90;99.90
2625;DHT22;1322;53.256;10.386;2022-10-16T06:53:38;13.90;99.90
2625;DHT22;1322;53.256;10.386;2022-10-16T06:58:36;13.90;99.90
2625;DHT22;1322;53.256;10.386;2022-10-16T07:01:03;13.90;99.90
2625;DHT22;1322;53.256;10.386;2022-10-16T07:03:29;13.90;99.90
2625;DHT22;1322;53.256;10.386;2022-10-16T07:05:54;14.00;99.90
2625;DHT22;1322;53.256;10.386;2022-10-16T07:08:20;13.90;99.90
2625;DHT22;1322;53.256;10.386;2022-10-16T07:10:46;13.80;99.90
2625;DHT22;1322;53.256;10.386;2022-10-16T07:13:11;13.80;99.90
2625;DHT22;1322;53.256;10.386;2022-10-16T07:15:39;13.80;99.90
2625;DHT22;1322;53.256;10.386;2022-10-16T07:18:05;13.90;99.90
2625;DHT22;1322;53.256;10.386;2022-10-16T07:20:30;14.10;99.90
2625;DHT22;1322;53.256;10.386;2022-10-16T07:22:56;14.20;99.90
2625;DHT22;1322;53.256;10.386;2022-10-16T07:25:21;14.20;99.90
2625;DHT22;1322;53.256;10.386;2022-10-16T07:27:47;14.30;99.90
2625;DHT22;1322;53.256;10.386;2022-10-16T07:30:12;14.40;99.90
2625;DHT22;1322;53.256;10.386;2022-10-16T07:32:38;14.40;99.90
2625;DHT22;1322;53.256;10.386;2022-10-16T07:35:04;14.50;99.90
2625;DHT22;1322;53.256;10.386;2022-10-16T07:37:30;14.50;99.90
2625;DHT22;1322;53.256;10.386;2022-10-16T07:39:55;14.60;99.90
2625;DHT22;1322;53.256;10.386;2022-10-16T07:42:21;14.60;99.90
2625;DHT22;1322;53.256;10.386;2022-10-16T07:44:46;14.70;99.90
2625;DHT22;1322;53.256;10.386;2022-10-16T07:47:12;14.70;99.90
2625;DHT22;1322;53.256;10.386;2022-10-16T07:49:37;14.80;99.90
2625;DHT22;1322;53.256;10.386;2022-10-16T07:52:03;14.90;99.90
2625;DHT22;1322;53.256;10.386;2022-10-16T07:54:29;14.90;99.90
2625;DHT22;1322;53.256;10.386;2022-10-16T07:56:54;15.00;99.90
2625;DHT22;1322;53.256;10.386;2022-10-16T07:59:20;15.10;99.90
2625;DHT22;1322;53.256;10.386;2022-10-16T08:01:46;15.30;99.90
2625;DHT22;1322;53.256;10.386;2022-10-16T08:04:11;15.40;99.90
2625;DHT22;1322;53.256;10.386;2022-10-16T08:06:39;15.50;99.90
2625;DHT22;1322;53.256;10.386;2022-10-16T08:09:06;15.60;99.90
2625;DHT22;1322;53.256;10.386;2022-10-16T08:11:32;15.80;99.90
2625;DHT22;1322;53.256;10.386;2022-10-16T08:13:57;16.00;99.90
2625;DHT22;1322;53.256;10.386;2022-10-16T08:16:23;16.10;99.90
2625;DHT22;1322;53.256;10.386;2022-10-16T08:18:49;16.30;99.90
2625;DHT22;1322;53.256;10.386;2022-10-16T08:21:18;16.40;99.90
2625;DHT22;1322;53.256;10.386;2022-10-16T08:23:44;16.60;99.90
2625;DHT22;1322;53.256;10.386;2022-10-16T08:26:10;16.70;99.90
2625;DHT22;1322;53.256;10.386;2022-10-16T08:28:36;16.80;99.90
2625;DHT22;1322;53.256;10.386;2022-10-16T08:31:10;16.80;99.90
2625;DHT22;1322;53.256;10.386;2022-10-16T08:33:37;16.80;99.90
2625;DHT22;1322;53.256;10.386;2022-10-16T08:36:04;16.80;99.90
2625;DHT22;1322;53.256;10.386;2022-10-16T08:38:30;16.90;99.90
2625;DHT22;1322;53.256;10.386;2022-10-16T08:47:13;16.90;99.90
2625;DHT22;1322;53.256;10.386;2022-10-16T08:49:41;16.90;99.90
2625;DHT22;1322;53.256;10.386;2022-10-16T08:52:12;16.90;99.90
2625;DHT22;1322;53.256;10.386;2022-10-16T08:54:43;16.90;99.90
2625;DHT22;1322;53.256;10.386;2022-10-16T08:57:17;16.80;99.90
2625;DHT22;1322;53.256;10.386;2022-10-16T08:59:44;16.70;99.90
2625;DHT22;1322;53.256;10.386;2022-10-16T09:05:01;16.60;99.90
2625;DHT22;1322;53.256;10.386;2022-10-16T09:13:21;16.70;99.90
2625;DHT22;1322;53.256;10.386;2022-10-16T09:18:22;16.80;99.90
2625;DHT22;1322;53.256;10.386;2022-10-16T09:23:49;16.90;99.90
2625;DHT22;1322;53.256;10.386;2022-10-16T09:26:16;17.00;99.90
2625;DHT22;1322;53.256;10.386;2022-10-16T09:28:43;17.00;99.90
2625;DHT22;1322;53.256;10.386;2022-10-16T09:31:20;17.00;99.90
2625;DHT22;1322;53.256;10.386;2022-10-16T09:33:53;17.10;99.90
2625;DHT22;1322;53.256;10.386;2022-10-16T09:36:21;17.10;99.90
2625;DHT22;1322;53.256;10.386;2022-10-16T09:38:48;17.20;99.90
2625;DHT22;1322;53.256;10.386;2022-10-16T09:41:20;17.20;99.90
2625;DHT22;1322;53.256;10.386;2022-10-16T09:43:53;17.20;99.90
2625;DHT22;1322;53.256;10.386;2022-10-16T09:46:40;17.30;99.90
2625;DHT22;1322;53.256;10.386;2022-10-16T09:49:22;17.40;99.90
2625;DHT22;1322;53.256;10.386;2022-10-16T09:51:49;17.40;99.90
2625;DHT22;1322;53.256;10.386;2022-10-16T09:54:17;17.50;99.90
2625;DHT22;1322;53.256;10.386;2022-10-16T09:56:43;17.50;99.90
2625;DHT22;1322;53.256;10.386;2022-10-16T09:59:16;17.60;99.90
2625;DHT22;1322;53.256;10.386;2022-10-16T10:01:53;17.60;99.90
2625;DHT22;1322;53.256;10.386;2022-10-16T10:04:20;17.60;99.90
2625;DHT22;1322;53.256;10.386;2022-10-16T10:06:51;17.70;99.90
2625;DHT22;1322;53.256;10.386;2022-10-16T10:16:51;17.70;99.90
2625;DHT22;1322;53.256;10.386;2022-10-16T10:19:22;17.80;99.90
2625;DHT22;1322;53.256;10.386;2022-10-16T10:21:49;17.80;99.90
2625;DHT22;1322;53.256;10.386;2022-10-16T10:24:18;17.80;99.90
2625;DHT22;1322;53.256;10.386;2022-10-16T10:27:06;17.90;99.90
2625;DHT22;1322;53.256;10.386;2022-10-16T10:29:53;17.80;99.90
2625;DHT22;1322;53.256;10.386;2022-10-16T10:32:42;17.90;99.90
2625;DHT22;1322;53.256;10.386;2022-10-16T10:35:18;17.90;99.90
2625;DHT22;1322;53.256;10.386;2022-10-16T10:40:40;17.90;99.90
2625;DHT22;1322;53.256;10.386;2022-10-16T10:43:23;17.90;99.90
2625;DHT22;1322;53.256;10.386;2022-10-16T10:45:57;17.90;99.90
2625;DHT22;1322;53.256;10.386;2022-10-16T10:51:35;17.90;99.90
2625;DHT22;1322;53.256;10.386;2022-10-16T10:54:14;17.90;99.90
2625;DHT22;1322;53.256;10.386;2022-10-16T10:56:57;18.00;99.90
2625;DHT22;1322;53.256;10.386;2022-10-16T11:02:40;18.10;99.90
2625;DHT22;1322;53.256;10.386;2022-10-16T11:13:40;18.20;99.90
2625;DHT22;1322;53.256;10.386;2022-10-16T11:16:51;18.30;99.90
2625;DHT22;1322;53.256;10.386;2022-10-16T11:19:44;18.50;99.90
2625;DHT22;1322;53.256;10.386;2022-10-16T11:27:57;18.90;99.90
2625;DHT22;1322;53.256;10.386;2022-10-16T11:30:27;19.00;99.90
2625;DHT22;1322;53.256;10.386;2022-10-16T11:39:00;19.10;99.90
2625;DHT22;1322;53.256;10.386;2022-10-16T11:46:34;19.60;99.90
2625;DHT22;1322;53.256;10.386;2022-10-16T11:49:16;19.50;99.90
2625;DHT22;1322;53.256;10.386;2022-10-16T11:51:51;19.50;99.90
2625;DHT22;1322;53.256;10.386;2022-10-16T11:57:22;19.40;99.90
2625;DHT22;1322;53.256;10.386;2022-10-16T12:10:23;19.00;99.90
2625;DHT22;1322;53.256;10.386;2022-10-16T12:12:49;18.90;99.90
2625;DHT22;1322;53.256;10.386;2022-10-16T12:17:47;18.80;99.90
2625;DHT22;1322;53.256;10.386;2022-10-16T12:25:22;18.70;99.90
2625;DHT22;1322;53.256;10.386;2022-10-16T12:28:28;18.70;99.90
2625;DHT22;1322;53.256;10.386;2022-10-16T12:31:01;18.70;99.90
2625;DHT22;1322;53.256;10.386;2022-10-16T12:33:32;18.80;99.90
2625;DHT22;1322;53.256;10.386;2022-10-16T12:35:59;18.80;99.90
2625;DHT22;1322;53.256;10.386;2022-10-16T12:38:44;18.80;99.90
2625;DHT22;1322;53.256;10.386;2022-10-16T12:41:11;18.80;99.90
2625;DHT22;1322;53.256;10.386;2022-10-16T12:43:42;18.80;99.90
2625;DHT22;1322;53.256;10.386;2022-10-16T12:48:35;18.80;99.90
2625;DHT22;1322;53.256;10.386;2022-10-16T12:51:12;18.70;99.90
2625;DHT22;1322;53.256;10.386;2022-10-16T12:53:38;18.80;99.90
2625;DHT22;1322;53.256;10.386;2022-10-16T12:56:27;18.90;99.90
2625;DHT22;1322;53.256;10.386;2022-10-16T13:02:05;18.90;99.90
2625;DHT22;1322;53.256;10.386;2022-10-16T13:10:41;18.80;99.90
2625;DHT22;1322;53.256;10.386;2022-10-16T13:16:03;18.70;99.90
2625;DHT22;1322;53.256;10.386;2022-10-16T13:19:18;18.70;99.90
2625;DHT22;1322;53.256;10.386;2022-10-16T13:24:50;18.80;99.90
2625;DHT22;1322;53.256;10.386;2022-10-16T13:27:30;18.90;99.90
2625;DHT22;1322;53.256;10.386;2022-10-16T13:30:16;18.90;99.90
2625;DHT22;1322;53.256;10.386;2022-10-16T13:32:50;18.80;99.90
2625;DHT22;1322;53.256;10.386;2022-10-16T13:35:22;18.90;99.90
2625;DHT22;1322;53.256;10.386;2022-10-16T13:37:48;19.00;99.90
2625;DHT22;1322;53.256;10.386;2022-10-16T13:40:22;19.10;99.90
2625;DHT22;1322;53.256;10.386;2022-10-16T13:42:49;19.10;99.90
2625;DHT22;1322;53.256;10.386;2022-10-16T13:45:23;19.10;99.90
2625;DHT22;1322;53.256;10.386;2022-10-16T13:48:01;19.00;99.90
2625;DHT22;1322;53.256;10.386;2022-10-16T13:50:26;18.90;99.90
2625;DHT22;1322;53.256;10.386;2022-10-16T13:53:03;18.90;99.90
2625;DHT22;1322;53.256;10.386;2022-10-16T13:55:29;18.90;99.90
2625;DHT22;1322;53.256;10.386;2022-10-16T13:58:07;18.90;99.90
2625;DHT22;1322;53.256;10.386;2022-10-16T14:00:33;18.80;99.90
2625;DHT22;1322;53.256;10.386;2022-10-16T14:03:05;18.80;99.90
2625;DHT22;1322;53.256;10.386;2022-10-16T14:05:32;18.90;99.90
2625;DHT22;1322;53.256;10.386;2022-10-16T14:07:58;19.00;99.90
2625;DHT22;1322;53.256;10.386;2022-10-16T14:10:31;19.10;99.90
2625;DHT22;1322;53.256;10.386;2022-10-16T14:13:03;19.10;99.90
2625;DHT22;1322;53.256;10.386;2022-10-16T14:15:32;19.20;99.90
2625;DHT22;1322;53.256;10.386;2022-10-16T14:17:58;19.20;99.90
2625;DHT22;1322;53.256;10.386;2022-10-16T14:20:32;19.20;99.90
2625;DHT22;1322;53.256;10.386;2022-10-16T14:25:47;19.20;99.90
2625;DHT22;1322;53.256;10.386;2022-10-16T14:28:20;19.20;99.90
2625;DHT22;1322;53.256;10.386;2022-10-16T14:30:54;19.10;99.90
2625;DHT22;1322;53.256;10.386;2022-10-16T14:33:25;19.00;99.90
2625;DHT22;1322;53.256;10.386;2022-10-16T14:36:03;18.90;99.90
2625;DHT22;1322;53.256;10.386;2022-10-16T14:38:30;18.90;99.90
2625;DHT22;1322;53.256;10.386;2022-10-16T14:40:58;18.80;99.90
2625;DHT22;1322;53.256;10.386;2022-10-16T14:43:34;18.80;99.90
2625;DHT22;1322;53.256;10.386;2022-10-16T14:46:02;18.70;99.90
2625;DHT22;1322;53.256;10.386;2022-10-16T14:48:28;18.60;99.90
2625;DHT22;1322;53.256;10.386;2022-10-16T14:50:54;18.50;99.90
2625;DHT22;1322;53.256;10.386;2022-10-16T14:53:20;18.40;99.90
2625;DHT22;1322;53.256;10.386;2022-10-16T14:55:46;18.40;99.90
2625;DHT22;1322;53.256;10.386;2022-10-16T14:58:16;18.40;99.90
2625;DHT22;1322;53.256;10.386;2022-10-16T15:00:43;18.30;99.90
2625;DHT22;1322;53.256;10.386;2022-10-16T15:03:08;18.30;99.90
2625;DHT22;1322;53.256;10.386;2022-10-16T15:05:34;18.20;99.90
2625;DHT22;1322;53.256;10.386;2022-10-16T15:08:00;18.10;99.90
2625;DHT22;1322;53.256;10.386;2022-10-16T15:10:27;18.00;99.90
2625;DHT22;1322;53.256;10.386;2022-10-16T15:12:54;18.00;99.90
2625;DHT22;1322;53.256;10.386;2022-10-16T15:17:49;17.90;99.90
2625;DHT22;1322;53.256;10.386;2022-10-16T15:20:17;17.90;99.90
2625;DHT22;1322;53.256;10.386;2022-10-16T15:22:43;17.90;99.90
2625;DHT22;1322;53.256;10.386;2022-10-16T15:25:35;17.80;99.90
2625;DHT22;1322;53.256;10.386;2022-10-16T15:28:03;17.80;99.90
2625;DHT22;1322;53.256;10.386;2022-10-16T15:30:29;17.70;99.90
2625;DHT22;1322;53.256;10.386;2022-10-16T15:32:55;17.70;99.90
2625;DHT22;1322;53.256;10.386;2022-10-16T15:35:21;17.70;99.90
2625;DHT22;1322;53.256;10.386;2022-10-16T15:37:47;17.70;99.90
2625;DHT22;1322;53.256;10.386;2022-10-16T15:40:15;17.70;99.90
2625;DHT22;1322;53.256;10.386;2022-10-16T15:42:40;17.60;99.90
2625;DHT22;1322;53.256;10.386;2022-10-16T15:45:07;17.60;99.90
2625;DHT22;1322;53.256;10.386;2022-10-16T15:47:33;17.70;99.90
2625;DHT22;1322;53.256;10.386;2022-10-16T15:49:59;17.60;99.90
2625;DHT22;1322;53.256;10.386;2022-10-16T15:52:25;17.60;99.90
2625;DHT22;1322;53.256;10.386;2022-10-16T15:54:50;17.50;99.90
2625;DHT22;1322;53.256;10.386;2022-10-16T15:57:16;17.50;99.90
2625;DHT22;1322;53.256;10.386;2022-10-16T15:59:41;17.40;99.90
2625;DHT22;1322;53.256;10.386;2022-10-16T16:02:08;17.40;99.90
2625;DHT22;1322;53.256;10.386;2022-10-16T16:04:34;17.40;99.90
2625;DHT22;1322;53.256;10.386;2022-10-16T16:07:00;17.40;99.90
2625;DHT22;1322;53.256;10.386;2022-10-16T16:09:28;17.30;99.90
2625;DHT22;1322;53.256;10.386;2022-10-16T16:11:54;17.30;99.90
2625;DHT22;1322;53.256;10.386;2022-10-16T16:14:19;17.30;99.90
2625;DHT22;1322;53.256;10.386;2022-10-16T16:16:45;17.20;99.90
2625;DHT22;1322;53.256;10.386;2022-10-16T16:19:11;17.20;99.90
2625;DHT22;1322;53.256;10.386;2022-10-16T16:21:37;17.10;99.90
2625;DHT22;1322;53.256;10.386;2022-10-16T16:24:02;17.10;99.90
2625;DHT22;1322;53.256;10.386;2022-10-16T16:26:34;17.00;99.90
2625;DHT22;1322;53.256;10.386;2022-10-16T16:29:02;17.00;99.90
2625;DHT22;1322;53.256;10.386;2022-10-16T16:31:30;17.00;99.90
2625;DHT22;1322;53.256;10.386;2022-10-16T16:33:56;16.90;99.90
2625;DHT22;1322;53.256;10.386;2022-10-16T16:36:23;16.90;99.90
2625;DHT22;1322;53.256;10.386;2022-10-16T16:38:49;16.80;99.90
2625;DHT22;1322;53.256;10.386;2022-10-16T16:41:23;16.80;99.90
2625;DHT22;1322;53.256;10.386;2022-10-16T16:43:49;16.70;99.90
2625;DHT22;1322;53.256;10.386;2022-10-16T16:46:17;16.70;99.90
2625;DHT22;1322;53.256;10.386;2022-10-16T16:48:42;16.60;99.90
2625;DHT22;1322;53.256;10.386;2022-10-16T16:51:17;16.50;99.90
2625;DHT22;1322;53.256;10.386;2022-10-16T16:53:47;16.50;99.90
2625;DHT22;1322;53.256;10.386;2022-10-16T16:56:14;16.50;99.90
2625;DHT22;1322;53.256;10.386;2022-10-16T16:58:40;16.40;99.90
2625;DHT22;1322;53.256;10.386;2022-10-16T17:01:06;16.40;99.90
2625;DHT22;1322;53.256;10.386;2022-10-16T17:03:35;16.30;99.90
2625;DHT22;1322;53.256;10.386;2022-10-16T17:06:07;16.20;99.90
2625;DHT22;1322;53.256;10.386;2022-10-16T17:08:37;16.20;99.90
2625;DHT22;1322;53.256;10.386;2022-10-16T17:11:04;16.20;99.90
2625;DHT22;1322;53.256;10.386;2022-10-16T17:13:32;16.10;99.90
2625;DHT22;1322;53.256;10.386;2022-10-16T17:16:00;16.10;99.90
2625;DHT22;1322;53.256;10.386;2022-10-16T17:18:26;16.10;99.90
2625;DHT22;1322;53.256;10.386;2022-10-16T17:20:52;16.00;99.90
2625;DHT22;1322;53.256;10.386;2022-10-16T17:23:19;16.00;99.90
2625;DHT22;1322;53.256;10.386;2022-10-16T17:25:45;16.00;99.90
2625;DHT22;1322;53.256;10.386;2022-10-16T17:28:11;15.90;99.90
2625;DHT22;1322;53.256;10.386;2022-10-16T17:30:41;15.90;99.90
2625;DHT22;1322;53.256;10.386;2022-10-16T17:33:07;15.90;99.90
2625;DHT22;1322;53.256;10.386;2022-10-16T17:35:37;15.90;99.90
2625;DHT22;1322;53.256;10.386;2022-10-16T17:38:03;15.80;99.90
2625;DHT22;1322;53.256;10.386;2022-10-16T17:40:29;15.80;99.90
2625;DHT22;1322;53.256;10.386;2022-10-16T17:42:54;15.80;99.90
2625;DHT22;1322;53.256;10.386;2022-10-16T17:45:20;15.80;99.90
2625;DHT22;1322;53.256;10.386;2022-10-16T17:47:46;15.70;99.90
2625;DHT22;1322;53.256;10.386;2022-10-16T17:50:11;15.70;99.90
2625;DHT22;1322;53.256;10.386;2022-10-16T17:52:37;15.70;99.90
2625;DHT22;1322;53.256;10.386;2022-10-16T17:55:03;15.60;99.90
2625;DHT22;1322;53.256;10.386;2022-10-16T17:57:29;15.60;99.90
2625;DHT22;1322;53.256;10.386;2022-10-16T17:59:54;15.60;99.90